首页
METAR-TAF:

METAR-TAF

机场 :

成田国际机场

东京 / 成田国际机场, 日本

纬度: 35-46N, 经度: 140-23E, 海拔: 41米

当前天气观测

该预报发布于22分钟前的10:00 UTC
风速5节,风向西南,在南转西南西之间变化
温度 31°C
湿度 75%
气压 1007 hPa
能见度10公里或以上
少量云层高于3000英尺
多云

METAR: RJAA 221000Z 23005KT 210V270 9999 FEW030 BKN/// 31/26 Q1007 NOSIG RMK 1CU030 A2974

时间: 19:22 (10:22 UTC)

预报

该预报发布于5小时和17分钟前的05:05 UTC
预报有效从22日的 06点(UTC)到 23日的 12点(UTC)
风速6节,风向东南
能见度10公里或以上
少量云层高于3000英尺
成为
从 22日的 13点(UTC)到 22日的 15点(UTC)
风速4节,风向
成为
从 22日的 21点(UTC)到 23日的 00点(UTC)
风速10节,风向东南

TAF: RJAA 220505Z 2206/2312 13006KT 9999 FEW030 BECMG 2213/2215 36004KT BECMG 2221/2300 13010KT

超过4000个机场的气象观测和天气预报(METAR&TAF报告)。

可查询的气象台以黄色和红色小点在地图上表示。

将鼠标移到小点上方,可查看气象台名称。

然后点击查看天气观测和预报。

如需切换地图:点击带黑十字的绿色按钮放大地图;点击带横线的绿色按钮缩小地图;或者点击绿色箭头查看邻近地区的地图。


METAR-TAF: